createdAt,value
2023-05-16T00:00:15.145Z,52.50
2023-05-16T00:01:15.150Z,56.01
2023-05-16T00:02:15.134Z,53.61
2023-05-16T00:03:15.245Z,54.01
2023-05-16T00:04:15.251Z,55.20
2023-05-16T00:05:15.113Z,53.80
2023-05-16T00:06:15.093Z,53.32
2023-05-16T00:07:15.145Z,53.00
2023-05-16T00:08:15.130Z,52.95
2023-05-16T00:09:15.170Z,53.84
2023-05-16T00:10:15.182Z,54.18
2023-05-16T00:11:15.239Z,53.93
2023-05-16T00:12:15.258Z,53.12
2023-05-16T00:13:15.260Z,53.52
2023-05-16T00:14:15.328Z,55.87
2023-05-16T00:15:15.350Z,52.22
2023-05-16T00:16:15.417Z,52.16
2023-05-16T00:17:15.486Z,53.41
2023-05-16T00:18:15.431Z,54.08
2023-05-16T00:19:15.586Z,53.00
2023-05-16T00:20:15.486Z,52.83
2023-05-16T00:21:15.487Z,52.61
2023-05-16T00:22:15.501Z,53.56
2023-05-16T00:23:15.602Z,53.72
2023-05-16T00:24:15.555Z,52.74
2023-05-16T00:25:15.622Z,55.67
2023-05-16T00:26:15.634Z,52.18
2023-05-16T00:27:15.637Z,53.74
2023-05-16T00:28:15.695Z,53.92
2023-05-16T00:29:15.676Z,52.39
2023-05-16T00:30:15.730Z,54.43
2023-05-16T00:31:15.988Z,53.64
2023-05-16T00:32:15.865Z,54.70
2023-05-16T00:33:15.996Z,53.10
2023-05-16T00:34:15.947Z,54.51
2023-05-16T00:35:15.861Z,51.56
2023-05-16T00:36:15.903Z,53.86
2023-05-16T00:37:15.932Z,52.41
2023-05-16T00:38:16.007Z,53.00
2023-05-16T00:39:16.000Z,55.08
2023-05-16T00:40:16.025Z,53.77
2023-05-16T00:41:16.032Z,51.92
2023-05-16T00:42:16.046Z,53.94
2023-05-16T00:43:16.096Z,51.51
2023-05-16T00:44:16.094Z,53.86
2023-05-16T00:45:16.119Z,55.35
2023-05-16T00:46:16.207Z,54.30
2023-05-16T00:47:16.202Z,51.92
2023-05-16T00:48:16.277Z,54.24
2023-05-16T00:49:16.261Z,52.90
2023-05-16T00:50:16.300Z,53.90
2023-05-16T00:51:16.324Z,53.35
2023-05-16T00:52:16.353Z,53.05
2023-05-16T00:53:17.273Z,52.68
2023-05-16T00:54:16.399Z,52.09
2023-05-16T00:55:16.469Z,53.48
2023-05-16T00:56:16.499Z,52.13
2023-05-16T00:57:16.521Z,53.10
2023-05-16T00:58:16.551Z,54.82
2023-05-16T00:59:16.560Z,53.94
2023-05-16T01:00:16.622Z,53.65
2023-05-16T01:01:16.639Z,51.59
2023-05-16T01:02:16.687Z,53.27
2023-05-16T01:03:16.788Z,51.43
2023-05-16T01:04:16.741Z,52.57
2023-05-16T01:05:16.742Z,52.26
2023-05-16T01:06:16.758Z,54.27
2023-05-16T01:07:16.798Z,54.12
2023-05-16T01:08:16.811Z,54.81
2023-05-16T01:09:16.869Z,53.40
2023-05-16T01:10:16.893Z,53.99
2023-05-16T01:11:16.901Z,52.92
2023-05-16T01:12:16.880Z,54.32
2023-05-16T01:13:16.972Z,53.54
2023-05-16T01:14:16.958Z,54.63
2023-05-16T01:15:17.014Z,54.26
2023-05-16T01:16:17.039Z,54.08
2023-05-16T01:17:17.053Z,55.52
2023-05-16T01:18:17.090Z,53.92
2023-05-16T01:19:17.113Z,54.46
2023-05-16T01:20:17.134Z,54.14
2023-05-16T01:21:17.141Z,52.76
2023-05-16T01:22:17.235Z,52.62
2023-05-16T01:23:17.284Z,54.48
2023-05-16T01:24:17.323Z,54.48
2023-05-16T01:25:17.345Z,55.16
2023-05-16T01:26:17.463Z,54.51
2023-05-16T01:27:17.480Z,54.21
2023-05-16T01:28:17.564Z,55.82
2023-05-16T01:29:17.621Z,54.74
2023-05-16T01:30:17.691Z,55.43
2023-05-16T01:31:17.808Z,55.87
2023-05-16T01:32:17.824Z,53.52
2023-05-16T01:33:17.882Z,55.51
2023-05-16T01:34:17.952Z,55.34
2023-05-16T01:35:18.020Z,54.90
2023-05-16T01:36:18.059Z,54.62
2023-05-16T01:37:18.086Z,55.22
2023-05-16T01:38:18.191Z,54.10
2023-05-16T01:39:18.270Z,54.16
2023-05-16T01:40:18.279Z,53.28
2023-05-16T01:41:18.310Z,54.09
2023-05-16T01:42:18.368Z,52.76
2023-05-16T01:43:18.398Z,54.21
2023-05-16T01:44:19.210Z,55.12
2023-05-16T01:45:18.516Z,53.82
2023-05-16T01:46:18.600Z,56.36
2023-05-16T01:47:18.603Z,53.46
2023-05-16T01:48:18.641Z,53.47
2023-05-16T01:49:18.698Z,54.25
2023-05-16T01:50:18.729Z,54.59
2023-05-16T01:51:18.787Z,55.05
2023-05-16T01:52:18.758Z,53.58
2023-05-16T01:53:18.851Z,55.03
2023-05-16T01:54:18.879Z,54.81
2023-05-16T01:55:18.970Z,53.29
2023-05-16T01:56:18.980Z,53.82
2023-05-16T01:57:19.011Z,55.50
2023-05-16T01:58:19.046Z,53.75
2023-05-16T01:59:19.089Z,53.74
2023-05-16T02:00:19.155Z,55.78
2023-05-16T02:01:19.239Z,54.46
2023-05-16T02:02:19.476Z,55.23
2023-05-16T02:03:19.290Z,54.42
2023-05-16T02:04:19.394Z,53.81
2023-05-16T02:05:19.286Z,53.78
2023-05-16T02:06:19.308Z,55.09
2023-05-16T02:07:19.434Z,53.20
2023-05-16T02:08:19.418Z,56.51
2023-05-16T02:09:19.418Z,54.30
2023-05-16T02:10:19.454Z,53.22
2023-05-16T02:11:19.506Z,55.80
2023-05-16T02:12:19.515Z,54.67
2023-05-16T02:13:19.612Z,54.36
2023-05-16T02:14:19.672Z,56.54
2023-05-16T02:15:19.682Z,55.49
2023-05-16T02:16:19.796Z,53.13
2023-05-16T02:17:19.883Z,56.17
2023-05-16T02:18:19.811Z,54.82
2023-05-16T02:19:20.017Z,53.99
2023-05-16T02:20:19.921Z,54.43
2023-05-16T02:21:19.935Z,54.44
2023-05-16T02:22:19.987Z,53.79
2023-05-16T02:23:19.988Z,54.59
2023-05-16T02:24:19.988Z,54.94
2023-05-16T02:25:20.029Z,55.18
2023-05-16T02:26:20.028Z,54.65
2023-05-16T02:27:20.059Z,54.86
2023-05-16T02:28:20.131Z,55.05
2023-05-16T02:29:20.163Z,53.91
2023-05-16T02:30:20.236Z,55.67
2023-05-16T02:31:20.287Z,55.34
2023-05-16T02:32:20.381Z,54.18
2023-05-16T02:33:20.397Z,54.21
2023-05-16T02:34:20.431Z,54.45
2023-05-16T02:35:20.483Z,54.27
2023-05-16T02:36:20.535Z,53.19
2023-05-16T02:37:20.549Z,55.30
2023-05-16T02:38:20.637Z,55.35
2023-05-16T02:39:20.713Z,55.13
2023-05-16T02:40:20.773Z,56.09
2023-05-16T02:41:20.797Z,55.70
2023-05-16T02:42:20.929Z,54.39
2023-05-16T02:43:20.921Z,56.14
2023-05-16T02:44:20.948Z,54.60
2023-05-16T02:45:20.973Z,54.80
2023-05-16T02:46:21.044Z,52.64
2023-05-16T02:47:21.194Z,54.07
2023-05-16T02:48:21.134Z,53.77
2023-05-16T02:49:21.143Z,54.55
2023-05-16T02:50:21.200Z,56.05
2023-05-16T02:51:21.273Z,55.75
2023-05-16T02:52:21.301Z,54.72
2023-05-16T02:53:21.362Z,55.13
2023-05-16T02:54:21.425Z,56.20
2023-05-16T02:55:22.530Z,55.48
2023-05-16T02:56:21.532Z,56.27
2023-05-16T02:57:21.586Z,56.10
2023-05-16T02:58:21.659Z,55.07
2023-05-16T02:59:21.713Z,54.74
2023-05-16T03:00:21.733Z,54.48
2023-05-16T03:01:21.752Z,54.56
2023-05-16T03:02:21.897Z,54.29
2023-05-16T03:03:21.950Z,56.06
2023-05-16T03:04:21.903Z,54.50
2023-05-16T03:05:21.867Z,54.37
2023-05-16T03:06:21.903Z,55.11
2023-05-16T03:07:21.915Z,53.69
2023-05-16T03:08:21.970Z,56.09
2023-05-16T03:09:22.004Z,55.47
2023-05-16T03:10:22.045Z,55.18
2023-05-16T03:11:22.088Z,55.52
2023-05-16T03:12:22.107Z,54.41
2023-05-16T03:13:22.146Z,54.39
2023-05-16T03:14:22.208Z,54.45
2023-05-16T03:15:22.244Z,52.62
2023-05-16T03:16:22.286Z,55.22
2023-05-16T03:17:22.330Z,54.94
2023-05-16T03:18:22.362Z,55.99
2023-05-16T03:19:22.451Z,54.77
2023-05-16T03:20:22.449Z,54.79
2023-05-16T03:21:22.478Z,55.63
2023-05-16T03:22:22.518Z,56.03
2023-05-16T03:23:22.554Z,55.90
2023-05-16T03:24:22.691Z,54.08
2023-05-16T03:25:22.639Z,56.58
2023-05-16T03:26:22.687Z,56.37
2023-05-16T03:27:22.707Z,55.83
2023-05-16T03:28:22.765Z,55.75
2023-05-16T03:29:22.802Z,55.65
2023-05-16T03:30:22.857Z,56.92
2023-05-16T03:31:22.912Z,55.25
2023-05-16T03:32:22.904Z,54.48
2023-05-16T03:33:22.946Z,55.35
2023-05-16T03:34:22.995Z,56.01
2023-05-16T03:35:23.029Z,55.63
2023-05-16T03:36:23.067Z,56.93
2023-05-16T03:37:23.097Z,54.85
2023-05-16T03:38:23.164Z,54.89
2023-05-16T03:39:23.193Z,54.62
2023-05-16T03:40:23.259Z,55.79
2023-05-16T03:41:23.312Z,56.42
2023-05-16T03:42:23.322Z,56.62
2023-05-16T03:43:23.394Z,55.88
2023-05-16T03:44:23.411Z,55.96
2023-05-16T03:45:23.489Z,56.90
2023-05-16T03:46:23.801Z,54.93
2023-05-16T03:47:23.561Z,55.29
2023-05-16T03:48:23.571Z,55.73
2023-05-16T03:49:23.711Z,56.39
2023-05-16T03:50:23.675Z,55.05
2023-05-16T03:51:25.487Z,55.81
2023-05-16T03:52:23.734Z,57.81
2023-05-16T03:53:23.781Z,54.70
2023-05-16T03:54:23.812Z,55.88
2023-05-16T03:55:23.879Z,55.97
2023-05-16T03:56:23.910Z,56.32
2023-05-16T03:57:23.941Z,56.05
2023-05-16T03:58:24.005Z,56.63
2023-05-16T03:59:24.045Z,55.79
2023-05-16T04:00:24.093Z,56.46
2023-05-16T04:01:24.144Z,56.63
2023-05-16T04:02:24.230Z,57.54
2023-05-16T04:03:24.287Z,56.38
2023-05-16T04:04:24.275Z,56.43
2023-05-16T04:05:24.357Z,56.36
2023-05-16T04:06:24.399Z,57.41
2023-05-16T04:07:24.411Z,57.87
2023-05-16T04:08:24.467Z,58.04
2023-05-16T04:09:24.521Z,56.32
2023-05-16T04:10:24.628Z,56.27
2023-05-16T04:11:24.629Z,57.96
2023-05-16T04:12:24.685Z,55.84
2023-05-16T04:13:24.746Z,58.20
2023-05-16T04:14:24.736Z,57.61
2023-05-16T04:15:24.949Z,54.84
2023-05-16T04:16:24.935Z,57.95
2023-05-16T04:17:24.917Z,55.92
2023-05-16T04:18:24.968Z,55.94
2023-05-16T04:19:25.031Z,58.70
2023-05-16T04:20:25.065Z,55.40
2023-05-16T04:21:25.084Z,55.75
2023-05-16T04:22:25.114Z,56.02
2023-05-16T04:23:25.191Z,57.18
2023-05-16T04:24:25.241Z,55.23
2023-05-16T04:25:25.431Z,55.83
2023-05-16T04:26:25.340Z,57.10
2023-05-16T04:27:25.395Z,56.61
2023-05-16T04:28:25.433Z,56.37
2023-05-16T04:29:25.473Z,57.00
2023-05-16T04:30:25.504Z,56.54
2023-05-16T04:31:25.596Z,56.35
2023-05-16T04:32:25.646Z,57.21
2023-05-16T04:33:25.683Z,58.49
2023-05-16T04:34:25.715Z,56.31
2023-05-16T04:35:26.088Z,57.39
2023-05-16T04:36:25.819Z,59.11
2023-05-16T04:37:25.855Z,57.90
2023-05-16T04:38:25.898Z,58.45
2023-05-16T04:39:25.960Z,58.44
2023-05-16T04:40:26.035Z,56.92
2023-05-16T04:41:26.038Z,59.88
2023-05-16T04:42:26.082Z,56.78
2023-05-16T04:43:26.096Z,57.90
2023-05-16T04:44:26.139Z,60.18
2023-05-16T04:45:26.523Z,58.16
2023-05-16T04:46:26.344Z,58.56
2023-05-16T04:47:26.328Z,59.52
2023-05-16T04:48:26.336Z,58.72
2023-05-16T04:49:26.386Z,58.92
2023-05-16T04:50:26.489Z,57.54
2023-05-16T04:51:26.501Z,58.26
2023-05-16T04:52:26.567Z,57.37
2023-05-16T04:53:26.600Z,56.30
2023-05-16T04:54:26.710Z,57.92
2023-05-16T04:55:27.003Z,57.96
2023-05-16T04:56:26.744Z,58.27
2023-05-16T04:57:26.787Z,57.80
2023-05-16T04:58:26.814Z,57.57
2023-05-16T04:59:26.933Z,60.58
2023-05-16T05:00:27.228Z,57.85
2023-05-16T05:01:27.075Z,58.50
2023-05-16T05:02:27.065Z,57.45
2023-05-16T05:03:27.838Z,58.92
2023-05-16T05:04:27.202Z,56.75
2023-05-16T05:05:27.672Z,57.00
2023-05-16T05:06:27.227Z,57.95
2023-05-16T05:07:27.324Z,57.35
2023-05-16T05:08:27.285Z,58.07
2023-05-16T05:09:27.359Z,57.69
2023-05-16T05:10:27.398Z,58.41
2023-05-16T05:11:27.465Z,58.04
2023-05-16T05:12:27.488Z,58.23
2023-05-16T05:13:27.510Z,59.19
2023-05-16T05:14:27.542Z,58.38
2023-05-16T05:15:28.081Z,57.90
2023-05-16T05:16:27.739Z,59.09
2023-05-16T05:17:27.877Z,58.95
2023-05-16T05:18:27.822Z,59.56
2023-05-16T05:19:27.855Z,58.67
2023-05-16T05:20:27.874Z,59.86
2023-05-16T05:21:27.878Z,60.59
2023-05-16T05:22:27.934Z,58.03
2023-05-16T05:23:27.990Z,60.42
2023-05-16T05:24:28.020Z,60.13
2023-05-16T05:25:28.313Z,61.34
2023-05-16T05:26:28.104Z,58.18
2023-05-16T05:27:28.124Z,59.15
2023-05-16T05:28:28.310Z,59.73
2023-05-16T05:29:28.255Z,58.81
2023-05-16T05:30:28.306Z,59.82
2023-05-16T05:31:28.384Z,59.91
2023-05-16T05:32:28.407Z,59.76
2023-05-16T05:33:28.452Z,60.05
2023-05-16T05:34:28.486Z,61.04
2023-05-16T05:35:28.800Z,60.37
2023-05-16T05:36:28.610Z,60.40
2023-05-16T05:37:28.624Z,63.73
2023-05-16T05:38:28.698Z,61.08
2023-05-16T05:39:28.704Z,88.44
2023-05-16T05:40:28.777Z,85.01
2023-05-16T05:41:28.825Z,86.72
2023-05-16T05:42:28.900Z,84.59
2023-05-16T05:43:28.932Z,84.97
2023-05-16T05:44:28.957Z,86.77
2023-05-16T05:45:29.256Z,91.41
2023-05-16T05:46:29.119Z,95.06
2023-05-16T05:47:29.120Z,98.68
2023-05-16T05:48:29.107Z,99.72
2023-05-16T05:49:29.149Z,105.20
2023-05-16T05:50:29.272Z,107.35
2023-05-16T05:51:29.277Z,113.08
2023-05-16T05:52:29.255Z,113.04
2023-05-16T05:53:29.326Z,123.80
2023-05-16T05:54:29.380Z,130.04
2023-05-16T05:55:29.657Z,140.07
2023-05-16T05:56:29.425Z,147.89
2023-05-16T05:57:29.425Z,151.80
2023-05-16T05:58:30.371Z,163.66
2023-05-16T05:59:29.547Z,167.17
2023-05-16T06:00:29.598Z,167.10
2023-05-16T06:01:29.565Z,173.31
2023-05-16T06:02:29.721Z,174.67
2023-05-16T06:03:29.603Z,181.19
2023-05-16T06:04:29.611Z,187.07
2023-05-16T06:05:29.905Z,190.32
2023-05-16T06:06:29.631Z,194.96
2023-05-16T06:07:29.660Z,200.00
2023-05-16T06:08:29.709Z,199.91
2023-05-16T06:09:29.709Z,199.31
2023-05-16T06:10:29.773Z,200.00
2023-05-16T06:11:29.752Z,200.00
2023-05-16T06:12:29.775Z,198.76
2023-05-16T06:13:29.782Z,200.00
2023-05-16T06:14:29.791Z,199.76
2023-05-16T06:15:29.957Z,198.85
2023-05-16T06:16:29.876Z,200.00
2023-05-16T06:17:29.853Z,199.96
2023-05-16T06:18:29.965Z,200.00
2023-05-16T06:19:29.893Z,199.67
2023-05-16T06:20:29.948Z,199.59
2023-05-16T06:21:29.980Z,199.19
2023-05-16T06:22:30.031Z,199.45
2023-05-16T06:23:30.058Z,199.82
2023-05-16T06:24:30.078Z,199.32
2023-05-16T06:25:30.260Z,199.54
2023-05-16T06:26:30.164Z,199.47
2023-05-16T06:27:30.200Z,199.79
2023-05-16T06:28:30.201Z,199.31
2023-05-16T06:29:30.227Z,199.67
2023-05-16T06:30:30.301Z,199.90
2023-05-16T06:31:30.321Z,198.84
2023-05-16T06:32:30.370Z,199.19
2023-05-16T06:33:30.353Z,200.00
2023-05-16T06:34:30.398Z,199.15
2023-05-16T06:35:30.426Z,199.24
2023-05-16T06:36:30.449Z,199.42
2023-05-16T06:37:30.479Z,199.62
2023-05-16T06:38:30.494Z,200.00
2023-05-16T06:39:30.492Z,199.16
2023-05-16T06:40:30.529Z,199.46
2023-05-16T06:41:30.583Z,200.00
2023-05-16T06:42:30.598Z,199.62
2023-05-16T06:43:30.574Z,200.00
2023-05-16T06:44:30.616Z,199.55
2023-05-16T06:45:30.754Z,200.21
2023-05-16T06:46:30.713Z,199.45
2023-05-16T06:47:30.748Z,198.16
2023-05-16T06:48:30.765Z,199.70
2023-05-16T06:49:30.719Z,198.31
2023-05-16T06:50:30.745Z,198.45
2023-05-16T06:51:30.758Z,199.32
2023-05-16T06:52:30.731Z,200.00
2023-05-16T06:53:30.746Z,198.93
2023-05-16T06:54:30.808Z,198.21
2023-05-16T06:55:30.837Z,199.19
2023-05-16T06:56:30.798Z,198.31
2023-05-16T06:57:30.804Z,199.79
2023-05-16T06:58:30.800Z,199.20
2023-05-16T06:59:30.819Z,199.45
2023-05-16T07:00:30.911Z,199.23
2023-05-16T07:01:31.007Z,198.88
2023-05-16T07:02:31.124Z,198.29
2023-05-16T07:03:31.204Z,198.71
2023-05-16T07:04:31.164Z,199.25
2023-05-16T07:05:31.228Z,199.43
2023-05-16T07:06:31.274Z,199.52
2023-05-16T07:07:31.327Z,198.78
2023-05-16T07:08:31.420Z,198.50
2023-05-16T07:09:31.472Z,199.92
2023-05-16T07:10:31.510Z,199.05
2023-05-16T07:11:31.576Z,193.06
2023-05-16T07:12:31.639Z,191.16
2023-05-16T07:13:32.496Z,177.60
2023-05-16T07:14:31.706Z,162.97
2023-05-16T07:15:31.675Z,160.06
2023-05-16T07:16:31.775Z,159.87
2023-05-16T07:17:31.765Z,160.99
2023-05-16T07:18:31.742Z,163.53
2023-05-16T07:19:31.780Z,159.88
2023-05-16T07:20:31.790Z,153.79
2023-05-16T07:21:31.838Z,134.73
2023-05-16T07:22:31.851Z,120.16
2023-05-16T07:23:31.907Z,125.91
2023-05-16T07:24:31.960Z,123.47
2023-05-16T07:25:32.026Z,117.30
2023-05-16T07:26:32.090Z,121.31
2023-05-16T07:27:32.142Z,112.84
2023-05-16T07:28:32.208Z,115.02
2023-05-16T07:29:32.274Z,121.58
2023-05-16T07:30:32.354Z,114.14
2023-05-16T07:31:32.460Z,112.47
2023-05-16T07:32:32.440Z,111.95
2023-05-16T07:33:32.499Z,106.00
2023-05-16T07:34:32.529Z,103.48
2023-05-16T07:35:32.632Z,95.67
2023-05-16T07:36:32.663Z,102.18
2023-05-16T07:37:32.735Z,104.96
2023-05-16T07:38:32.776Z,109.22
2023-05-16T07:39:32.810Z,113.41
2023-05-16T07:40:32.903Z,115.10
2023-05-16T07:41:32.943Z,114.43
2023-05-16T07:42:32.946Z,117.43
2023-05-16T07:43:33.016Z,119.49
2023-05-16T07:44:33.050Z,119.21
2023-05-16T07:45:33.076Z,120.85
2023-05-16T07:46:33.144Z,121.87
2023-05-16T07:47:33.332Z,125.18
2023-05-16T07:48:33.144Z,124.30
2023-05-16T07:49:33.136Z,126.61
2023-05-16T07:50:33.170Z,127.90
2023-05-16T07:51:33.228Z,129.59
2023-05-16T07:52:33.169Z,129.63
2023-05-16T07:53:33.166Z,131.30
2023-05-16T07:54:33.172Z,131.94
2023-05-16T07:55:33.213Z,133.45
2023-05-16T07:56:33.184Z,135.32
2023-05-16T07:57:33.186Z,136.11
2023-05-16T07:58:33.171Z,137.61
2023-05-16T07:59:33.267Z,138.94
2023-05-16T08:00:33.211Z,139.33
2023-05-16T08:01:33.194Z,140.20
2023-05-16T08:02:33.264Z,140.35
2023-05-16T08:03:33.307Z,142.09
2023-05-16T08:04:33.200Z,143.40
2023-05-16T08:05:33.233Z,143.88
2023-05-16T08:06:33.216Z,144.35
2023-05-16T08:07:33.470Z,144.73
2023-05-16T08:08:33.230Z,146.18
2023-05-16T08:09:33.244Z,146.02
2023-05-16T08:10:33.244Z,148.29
2023-05-16T08:11:33.234Z,147.64
2023-05-16T08:12:33.224Z,146.76
2023-05-16T08:13:33.233Z,123.75
2023-05-16T08:14:33.217Z,106.58
2023-05-16T08:15:33.235Z,87.00
2023-05-16T08:16:33.335Z,84.16
2023-05-16T08:17:33.452Z,75.39
2023-05-16T08:18:33.422Z,62.46
2023-05-16T08:19:33.427Z,59.61
2023-05-16T08:20:33.453Z,54.80
2023-05-16T08:21:33.473Z,51.17
2023-05-16T08:22:33.470Z,56.40
2023-05-16T08:23:33.553Z,55.84
2023-05-16T08:24:33.594Z,48.12
2023-05-16T08:25:33.602Z,44.86
2023-05-16T08:26:33.667Z,49.00
2023-05-16T08:27:33.752Z,50.00
2023-05-16T08:28:33.819Z,57.34
2023-05-16T08:29:33.817Z,66.44
2023-05-16T08:30:33.880Z,71.10
2023-05-16T08:31:34.023Z,73.99
2023-05-16T08:32:34.089Z,77.45
2023-05-16T08:33:34.071Z,80.20
2023-05-16T08:34:34.073Z,82.59
2023-05-16T08:35:34.072Z,84.23
2023-05-16T08:36:34.115Z,84.63
2023-05-16T08:37:34.111Z,86.45
2023-05-16T08:38:34.169Z,90.34
2023-05-16T08:39:34.271Z,94.11
2023-05-16T08:40:34.375Z,98.35
2023-05-16T08:41:34.277Z,100.72
2023-05-16T08:42:34.301Z,103.04
2023-05-16T08:43:34.381Z,106.91
2023-05-16T08:44:34.416Z,109.87
2023-05-16T08:45:34.472Z,110.45
2023-05-16T08:46:34.566Z,115.93
2023-05-16T08:47:34.657Z,118.73
2023-05-16T08:48:34.596Z,128.69
2023-05-16T08:49:34.611Z,133.79
2023-05-16T08:50:34.647Z,136.20
2023-05-16T08:51:34.702Z,141.68
2023-05-16T08:52:34.694Z,143.97
2023-05-16T08:53:34.707Z,136.39
2023-05-16T08:54:34.733Z,117.61
2023-05-16T08:55:34.893Z,108.33
2023-05-16T08:56:34.801Z,108.45
2023-05-16T08:57:34.839Z,111.74
2023-05-16T08:58:34.886Z,112.98
2023-05-16T08:59:34.966Z,115.46
2023-05-16T09:00:35.066Z,116.56
2023-05-16T09:01:35.311Z,115.55
2023-05-16T09:02:35.143Z,108.22
2023-05-16T09:03:35.161Z,108.92
2023-05-16T09:04:35.250Z,103.58
2023-05-16T09:05:35.259Z,97.43
2023-05-16T09:06:36.981Z,90.42
2023-05-16T09:07:35.373Z,80.93
2023-05-16T09:08:35.431Z,79.33
2023-05-16T09:09:35.495Z,80.35
2023-05-16T09:10:35.575Z,76.21
2023-05-16T09:11:37.115Z,78.34
2023-05-16T09:12:35.686Z,77.31
2023-05-16T09:13:35.721Z,73.74
2023-05-16T09:14:35.767Z,65.79
2023-05-16T09:15:35.831Z,60.83
2023-05-16T09:16:35.894Z,49.58
2023-05-16T09:17:39.826Z,50.00
2023-05-16T09:18:35.937Z,50.06
2023-05-16T09:19:36.035Z,50.14
2023-05-16T09:20:35.900Z,48.13
2023-05-16T09:21:35.904Z,43.98
2023-05-16T09:22:35.939Z,38.44
2023-05-16T09:23:37.214Z,43.87
2023-05-16T09:24:36.032Z,46.15
2023-05-16T09:25:36.284Z,47.86
2023-05-16T09:26:36.112Z,48.47
2023-05-16T09:27:36.180Z,52.19
2023-05-16T09:28:36.223Z,51.10
2023-05-16T09:29:37.123Z,53.64
2023-05-16T09:30:36.272Z,53.22
2023-05-16T09:31:36.401Z,53.27
2023-05-16T09:32:36.382Z,50.77
2023-05-16T09:33:36.388Z,50.00
2023-05-16T09:34:36.419Z,51.09
2023-05-16T09:35:44.679Z,53.37
2023-05-16T09:36:37.445Z,53.55
2023-05-16T09:37:36.456Z,54.56
2023-05-16T09:38:36.431Z,55.88
2023-05-16T09:39:36.433Z,57.80
2023-05-16T09:40:36.423Z,70.26
2023-05-16T09:41:36.420Z,77.26
2023-05-16T09:42:36.390Z,83.49
2023-05-16T09:43:37.872Z,87.42
2023-05-16T09:44:36.400Z,92.43
2023-05-16T09:45:36.424Z,93.13
2023-05-16T09:46:36.460Z,98.04
2023-05-16T09:47:36.524Z,107.29
2023-05-16T09:48:36.525Z,111.92
2023-05-16T09:49:36.586Z,115.75
2023-05-16T09:50:36.618Z,119.40
2023-05-16T09:51:36.731Z,128.36
2023-05-16T09:52:36.754Z,129.24
2023-05-16T09:53:36.794Z,127.52
2023-05-16T09:54:36.900Z,128.35
2023-05-16T09:55:36.948Z,130.16
2023-05-16T09:56:36.985Z,131.74
2023-05-16T09:57:37.048Z,131.88
2023-05-16T09:58:37.112Z,132.96
2023-05-16T09:59:37.160Z,133.65
2023-05-16T10:00:37.209Z,134.87
2023-05-16T10:01:37.270Z,135.49
2023-05-16T10:02:37.325Z,136.30
2023-05-16T10:03:37.378Z,137.23
2023-05-16T10:04:37.343Z,138.27
2023-05-16T10:05:37.397Z,138.92
2023-05-16T10:06:37.431Z,139.33
2023-05-16T10:07:37.476Z,140.45
2023-05-16T10:08:37.513Z,141.95
2023-05-16T10:09:37.541Z,142.20
2023-05-16T10:10:37.552Z,143.67
2023-05-16T10:11:37.606Z,144.38
2023-05-16T10:12:37.620Z,144.72
2023-05-16T10:13:37.777Z,145.99
2023-05-16T10:14:37.710Z,146.73
2023-05-16T10:15:37.764Z,147.10
2023-05-16T10:16:37.815Z,148.34
2023-05-16T10:17:37.828Z,148.90
2023-05-16T10:18:37.879Z,151.01
2023-05-16T10:19:37.823Z,151.47
2023-05-16T10:20:37.869Z,151.60
2023-05-16T10:21:37.890Z,153.69
2023-05-16T10:22:37.896Z,153.99
2023-05-16T10:23:37.885Z,153.46
2023-05-16T10:24:37.987Z,134.70
2023-05-16T10:25:38.030Z,121.81
2023-05-16T10:26:38.978Z,113.67
2023-05-16T10:27:38.074Z,107.21
2023-05-16T10:28:38.156Z,102.37
2023-05-16T10:29:50.328Z,97.85
2023-05-16T10:30:39.161Z,96.91
2023-05-16T10:31:38.416Z,92.97
2023-05-16T10:32:39.404Z,88.73
2023-05-16T10:33:38.206Z,89.20
2023-05-16T10:34:38.203Z,87.94
2023-05-16T10:35:38.216Z,85.93
2023-05-16T10:36:38.216Z,85.11
2023-05-16T10:37:38.229Z,87.45
2023-05-16T10:38:38.233Z,169.29
2023-05-16T10:39:38.250Z,150.85
2023-05-16T10:40:38.269Z,138.27
2023-05-16T10:41:38.420Z,132.01
2023-05-16T10:42:38.396Z,131.92
2023-05-16T10:43:38.419Z,133.29
2023-05-16T10:44:38.501Z,135.71
2023-05-16T10:45:38.571Z,139.58
2023-05-16T10:46:38.781Z,139.76
2023-05-16T10:47:38.770Z,138.88
2023-05-16T10:48:38.829Z,142.12
2023-05-16T10:49:38.772Z,144.28
2023-05-16T10:50:38.830Z,146.14
2023-05-16T10:51:38.983Z,147.97
2023-05-16T10:52:38.886Z,148.23
2023-05-16T10:53:38.928Z,149.25
2023-05-16T10:54:38.968Z,149.58
2023-05-16T10:55:38.983Z,152.16
2023-05-16T10:56:39.035Z,153.98
2023-05-16T10:57:39.056Z,154.66
2023-05-16T10:58:39.086Z,157.10
2023-05-16T10:59:39.069Z,158.90
2023-05-16T11:00:39.091Z,159.80
2023-05-16T11:01:39.155Z,161.48
2023-05-16T11:02:39.201Z,162.57
2023-05-16T11:03:39.384Z,163.81
2023-05-16T11:04:39.129Z,165.72
2023-05-16T11:05:39.114Z,167.10
2023-05-16T11:06:39.093Z,168.64
2023-05-16T11:07:39.123Z,170.15
2023-05-16T11:08:39.069Z,170.34
2023-05-16T11:09:39.093Z,171.08
2023-05-16T11:10:39.099Z,170.40
2023-05-16T11:11:39.126Z,171.49
2023-05-16T11:12:39.137Z,173.00
2023-05-16T11:13:39.168Z,174.43
2023-05-16T11:14:39.222Z,174.46
2023-05-16T11:15:39.200Z,175.19
2023-05-16T11:16:39.293Z,175.63
2023-05-16T11:17:40.876Z,177.24
2023-05-16T11:18:39.530Z,179.71
2023-05-16T11:19:39.586Z,179.63
2023-05-16T11:20:39.630Z,180.90
2023-05-16T11:21:39.679Z,183.01
2023-05-16T11:22:39.739Z,183.30
2023-05-16T11:23:39.796Z,185.93
2023-05-16T11:24:39.864Z,187.10
2023-05-16T11:25:40.444Z,188.43
2023-05-16T11:26:40.025Z,189.12
2023-05-16T11:27:40.079Z,191.20
2023-05-16T11:28:40.127Z,192.31
2023-05-16T11:29:40.165Z,193.51
2023-05-16T11:30:40.319Z,193.78
2023-05-16T11:31:40.389Z,193.60
2023-05-16T11:32:40.868Z,194.49
2023-05-16T11:33:40.398Z,196.56
2023-05-16T11:34:40.460Z,196.80
2023-05-16T11:35:40.521Z,197.29
2023-05-16T11:36:40.572Z,198.58
2023-05-16T11:37:40.629Z,198.93
2023-05-16T11:38:40.691Z,199.38
2023-05-16T11:39:40.785Z,198.87
2023-05-16T11:40:40.815Z,199.53
2023-05-16T11:41:40.871Z,198.99
2023-05-16T11:42:40.937Z,198.20
2023-05-16T11:43:41.004Z,198.39
2023-05-16T11:44:41.085Z,198.81
2023-05-16T11:45:41.135Z,198.25
2023-05-16T11:46:41.245Z,198.72
2023-05-16T11:47:41.269Z,198.52
2023-05-16T11:48:41.376Z,198.64
2023-05-16T11:49:41.369Z,198.16
2023-05-16T11:50:41.433Z,198.99
2023-05-16T11:51:41.480Z,199.65
2023-05-16T11:52:41.554Z,199.68
2023-05-16T11:53:41.593Z,198.93
2023-05-16T11:54:41.678Z,199.71
2023-05-16T11:55:42.703Z,199.39
2023-05-16T11:56:41.756Z,199.20
2023-05-16T11:57:41.791Z,199.21
2023-05-16T11:58:41.826Z,199.04
2023-05-16T11:59:41.803Z,199.09
2023-05-16T12:00:41.850Z,199.77
2023-05-16T12:01:41.863Z,199.56
2023-05-16T12:02:42.006Z,199.04
2023-05-16T12:03:42.040Z,199.48
2023-05-16T12:04:42.035Z,199.34
2023-05-16T12:05:42.116Z,192.91
2023-05-16T12:06:42.028Z,142.27
2023-05-16T12:07:42.005Z,128.29
2023-05-16T12:08:42.043Z,110.20
2023-05-16T12:09:42.050Z,81.99
2023-05-16T12:10:42.143Z,82.81
2023-05-16T12:11:42.206Z,83.78
2023-05-16T12:12:42.281Z,84.37
2023-05-16T12:13:42.294Z,80.61
2023-05-16T12:14:42.359Z,66.38
2023-05-16T12:15:42.365Z,56.51
2023-05-16T12:16:42.521Z,66.08
2023-05-16T12:17:42.498Z,59.24
2023-05-16T12:18:43.694Z,75.48
2023-05-16T12:19:42.460Z,73.31
2023-05-16T12:20:42.431Z,78.72
2023-05-16T12:21:42.479Z,85.01
2023-05-16T12:22:42.483Z,84.05
2023-05-16T12:23:42.469Z,74.40
2023-05-16T12:24:42.489Z,66.24
2023-05-16T12:25:42.521Z,59.36
2023-05-16T12:26:42.528Z,48.19
2023-05-16T12:27:43.983Z,47.92
2023-05-16T12:28:42.486Z,49.77
2023-05-16T12:29:42.464Z,45.97
2023-05-16T12:30:42.502Z,45.23
2023-05-16T12:31:42.473Z,46.54
2023-05-16T12:32:42.561Z,51.10
2023-05-16T12:33:42.531Z,48.08
2023-05-16T12:34:42.433Z,51.77
2023-05-16T12:35:42.470Z,46.47
2023-05-16T12:36:42.445Z,45.67
2023-05-16T12:37:42.427Z,44.94
2023-05-16T12:38:42.455Z,47.44
2023-05-16T12:39:42.432Z,51.51
2023-05-16T12:40:42.420Z,53.89
2023-05-16T12:41:42.418Z,53.71
2023-05-16T12:42:42.408Z,48.57